sensor_id;sensor_type;location;lat;lon;timestamp;pressure;altitude;pressure_sealevel;temperature;humidity
7990;BME280;4040;42.848;23.034;2024-03-25T00:01:10;93500.56;;;3.40;100.00
7990;BME280;4040;42.848;23.034;2024-03-25T00:03:37;93484.97;;;3.45;100.00
7990;BME280;4040;42.848;23.034;2024-03-25T00:06:05;93483.50;;;3.34;100.00
7990;BME280;4040;42.848;23.034;2024-03-25T00:08:32;93414.16;;;2.86;100.00
7990;BME280;4040;42.848;23.034;2024-03-25T00:10:59;93480.09;;;3.30;100.00
7990;BME280;4040;42.848;23.034;2024-03-25T00:13:27;93479.75;;;3.21;100.00
7990;BME280;4040;42.848;23.034;2024-03-25T00:15:54;93486.22;;;3.16;100.00
7990;BME280;4040;42.848;23.034;2024-03-25T00:18:21;93473.31;;;3.15;100.00
7990;BME280;4040;42.848;23.034;2024-03-25T00:20:48;93475.22;;;3.11;100.00
7990;BME280;4040;42.848;23.034;2024-03-25T00:23:14;93469.88;;;3.18;100.00
7990;BME280;4040;42.848;23.034;2024-03-25T00:25:42;93464.97;;;3.13;100.00
7990;BME280;4040;42.848;23.034;2024-03-25T00:28:08;93418.72;;;2.86;100.00
7990;BME280;4040;42.848;23.034;2024-03-25T00:30:37;93464.19;;;3.16;100.00
7990;BME280;4040;42.848;23.034;2024-03-25T00:33:03;93460.38;;;3.17;100.00
7990;BME280;4040;42.848;23.034;2024-03-25T00:35:32;93448.22;;;3.16;100.00
7990;BME280;4040;42.848;23.034;2024-03-25T00:37:58;93441.44;;;3.08;100.00
7990;BME280;4040;42.848;23.034;2024-03-25T00:40:26;93436.06;;;3.18;100.00
7990;BME280;4040;42.848;23.034;2024-03-25T00:42:52;93444.41;;;3.17;100.00
7990;BME280;4040;42.848;23.034;2024-03-25T00:45:19;93462.66;;;3.22;100.00
7990;BME280;4040;42.848;23.034;2024-03-25T00:47:47;93459.59;;;3.23;100.00
7990;BME280;4040;42.848;23.034;2024-03-25T00:50:15;93412.28;;;2.83;100.00
7990;BME280;4040;42.848;23.034;2024-03-25T00:52:42;93426.66;;;3.00;100.00
7990;BME280;4040;42.848;23.034;2024-03-25T00:55:09;93453.09;;;3.28;100.00
7990;BME280;4040;42.848;23.034;2024-03-25T00:57:35;93452.72;;;3.26;100.00
7990;BME280;4040;42.848;23.034;2024-03-25T01:00:03;93450.44;;;3.28;100.00
7990;BME280;4040;42.848;23.034;2024-03-25T01:02:30;93457.31;;;3.25;100.00
7990;BME280;4040;42.848;23.034;2024-03-25T01:04:59;93427.00;;;3.09;100.00
7990;BME280;4040;42.848;23.034;2024-03-25T01:07:25;93452.78;;;3.15;100.00
7990;BME280;4040;42.848;23.034;2024-03-25T01:09:53;93405.41;;;2.89;100.00
7990;BME280;4040;42.848;23.034;2024-03-25T01:12:19;93455.81;;;3.21;100.00
7990;BME280;4040;42.848;23.034;2024-03-25T01:14:46;93455.03;;;3.24;100.00
7990;BME280;4040;42.848;23.034;2024-03-25T01:17:13;93449.63;;;3.38;100.00
7990;BME280;4040;42.848;23.034;2024-03-25T01:19:40;93453.75;;;3.53;100.00
7990;BME280;4040;42.848;23.034;2024-03-25T01:22:08;93432.09;;;3.51;100.00
7990;BME280;4040;42.848;23.034;2024-03-25T01:24:36;93454.06;;;3.62;100.00
7990;BME280;4040;42.848;23.034;2024-03-25T01:27:03;93434.44;;;3.35;100.00
7990;BME280;4040;42.848;23.034;2024-03-25T01:29:30;93467.88;;;3.43;100.00
7990;BME280;4040;42.848;23.034;2024-03-25T01:31:56;93460.66;;;3.40;100.00
7990;BME280;4040;42.848;23.034;2024-03-25T01:34:25;93461.41;;;3.40;100.00
7990;BME280;4040;42.848;23.034;2024-03-25T01:36:51;93434.53;;;3.21;100.00
7990;BME280;4040;42.848;23.034;2024-03-25T01:39:20;93473.97;;;3.40;100.00
7990;BME280;4040;42.848;23.034;2024-03-25T01:41:47;93464.84;;;3.37;100.00
7990;BME280;4040;42.848;23.034;2024-03-25T01:44:14;93458.00;;;3.40;100.00
7990;BME280;4040;42.848;23.034;2024-03-25T01:46:41;93467.16;;;3.32;100.00
7990;BME280;4040;42.848;23.034;2024-03-25T01:49:10;93470.25;;;3.23;100.00
7990;BME280;4040;42.848;23.034;2024-03-25T01:51:38;93459.63;;;3.20;100.00
7990;BME280;4040;42.848;23.034;2024-03-25T01:54:06;93451.22;;;3.21;100.00
7990;BME280;4040;42.848;23.034;2024-03-25T01:56:35;93453.91;;;3.18;100.00
7990;BME280;4040;42.848;23.034;2024-03-25T01:59:04;93401.31;;;2.74;100.00
7990;BME280;4040;42.848;23.034;2024-03-25T02:01:30;93451.22;;;3.25;100.00
7990;BME280;4040;42.848;23.034;2024-03-25T02:03:58;93455.81;;;3.21;100.00
7990;BME280;4040;42.848;23.034;2024-03-25T02:06:27;93468.75;;;3.12;100.00
7990;BME280;4040;42.848;23.034;2024-03-25T02:08:56;93455.09;;;3.10;100.00
7990;BME280;4040;42.848;23.034;2024-03-25T02:11:23;93455.84;;;3.07;100.00
7990;BME280;4040;42.848;23.034;2024-03-25T02:13:52;93459.66;;;3.09;100.00
7990;BME280;4040;42.848;23.034;2024-03-25T02:16:19;93457.41;;;3.04;100.00
7990;BME280;4040;42.848;23.034;2024-03-25T02:18:46;93449.41;;;3.08;100.00
7990;BME280;4040;42.848;23.034;2024-03-25T02:21:13;93452.81;;;3.05;100.00
7990;BME280;4040;42.848;23.034;2024-03-25T02:23:42;93456.28;;;2.98;100.00
7990;BME280;4040;42.848;23.034;2024-03-25T02:26:12;93464.25;;;3.02;100.00
7990;BME280;4040;42.848;23.034;2024-03-25T02:28:39;93464.25;;;3.02;100.00
7990;BME280;4040;42.848;23.034;2024-03-25T02:31:05;93469.16;;;3.07;100.00
7990;BME280;4040;42.848;23.034;2024-03-25T02:33:33;93461.16;;;3.07;100.00
7990;BME280;4040;42.848;23.034;2024-03-25T02:35:59;93458.91;;;3.09;100.00
7990;BME280;4040;42.848;23.034;2024-03-25T02:38:27;93449.41;;;3.08;100.00
7990;BME280;4040;42.848;23.034;2024-03-25T02:40:53;93458.50;;;3.07;100.00
7990;BME280;4040;42.848;23.034;2024-03-25T02:43:22;93461.94;;;3.07;100.00
7990;BME280;4040;42.848;23.034;2024-03-25T02:45:49;93480.97;;;2.99;100.00
7990;BME280;4040;42.848;23.034;2024-03-25T02:48:16;93484.00;;;3.01;100.00
7990;BME280;4040;42.848;23.034;2024-03-25T02:50:42;93485.50;;;3.05;100.00
7990;BME280;4040;42.848;23.034;2024-03-25T02:53:10;93495.38;;;3.01;100.00
7990;BME280;4040;42.848;23.034;2024-03-25T02:55:36;93493.13;;;2.93;100.00
7990;BME280;4040;42.848;23.034;2024-03-25T02:58:04;93484.38;;;3.03;100.00
7990;BME280;4040;42.848;23.034;2024-03-25T03:00:31;93462.78;;;2.87;100.00
7990;BME280;4040;42.848;23.034;2024-03-25T03:02:59;93494.66;;;2.94;100.00
7990;BME280;4040;42.848;23.034;2024-03-25T03:05:25;93498.81;;;2.95;100.00
7990;BME280;4040;42.848;23.034;2024-03-25T03:07:52;93497.69;;;2.96;100.00
7990;BME280;4040;42.848;23.034;2024-03-25T03:10:18;93501.47;;;2.95;100.00
7990;BME280;4040;42.848;23.034;2024-03-25T03:12:46;93499.19;;;2.97;100.00
7990;BME280;4040;42.848;23.034;2024-03-25T03:15:12;93498.81;;;2.98;100.00
7990;BME280;4040;42.848;23.034;2024-03-25T03:17:42;93505.28;;;3.01;100.00
7990;BME280;4040;42.848;23.034;2024-03-25T03:20:09;93503.00;;;2.96;100.00
7990;BME280;4040;42.848;23.034;2024-03-25T03:22:37;93509.88;;;2.90;100.00
7990;BME280;4040;42.848;23.034;2024-03-25T03:25:03;93517.44;;;2.95;100.00
7990;BME280;4040;42.848;23.034;2024-03-25T03:27:31;93517.06;;;2.96;100.00
7990;BME280;4040;42.848;23.034;2024-03-25T03:29:57;93516.66;;;3.05;100.00
7990;BME280;4040;42.848;23.034;2024-03-25T03:32:25;93513.63;;;3.10;100.00
7990;BME280;4040;42.848;23.034;2024-03-25T03:34:52;93521.97;;;3.05;100.00
7990;BME280;4040;42.848;23.034;2024-03-25T03:37:20;93518.16;;;3.06;100.00
7990;BME280;4040;42.848;23.034;2024-03-25T03:39:46;93528.78;;;3.13;100.00
7990;BME280;4040;42.848;23.034;2024-03-25T03:42:13;93534.84;;;3.17;100.00
7990;BME280;4040;42.848;23.034;2024-03-25T03:44:39;93533.34;;;3.12;100.00
7990;BME280;4040;42.848;23.034;2024-03-25T03:47:07;93531.09;;;3.11;100.00
7990;BME280;4040;42.848;23.034;2024-03-25T03:49:33;93536.03;;;3.09;100.00
7990;BME280;4040;42.848;23.034;2024-03-25T03:52:02;93534.09;;;3.13;100.00
7990;BME280;4040;42.848;23.034;2024-03-25T03:54:29;93545.53;;;3.06;100.00
7990;BME280;4040;42.848;23.034;2024-03-25T03:56:56;93545.53;;;3.03;100.00
7990;BME280;4040;42.848;23.034;2024-03-25T03:59:22;93542.50;;;3.08;100.00
7990;BME280;4040;42.848;23.034;2024-03-25T04:01:50;93547.81;;;3.08;100.00
7990;BME280;4040;42.848;23.034;2024-03-25T04:04:16;93558.47;;;3.08;100.00
7990;BME280;4040;42.848;23.034;2024-03-25T04:06:43;93563.00;;;3.11;100.00
7990;BME280;4040;42.848;23.034;2024-03-25T04:09:11;93563.00;;;3.11;100.00
7990;BME280;4040;42.848;23.034;2024-03-25T04:11:39;93563.00;;;3.14;100.00
7990;BME280;4040;42.848;23.034;2024-03-25T04:14:05;93563.72;;;3.18;100.00
7990;BME280;4040;42.848;23.034;2024-03-25T04:16:33;93556.13;;;3.24;100.00
7990;BME280;4040;42.848;23.034;2024-03-25T04:18:59;93557.63;;;3.18;100.00
7990;BME280;4040;42.848;23.034;2024-03-25T04:21:27;93574.31;;;3.36;100.00
7990;BME280;4040;42.848;23.034;2024-03-25T04:23:53;93578.84;;;3.39;100.00
7990;BME280;4040;42.848;23.034;2024-03-25T04:26:22;93591.03;;;3.40;100.00
7990;BME280;4040;42.848;23.034;2024-03-25T04:28:49;93586.47;;;3.40;100.00
7990;BME280;4040;42.848;23.034;2024-03-25T04:31:16;93593.31;;;3.38;100.00
7990;BME280;4040;42.848;23.034;2024-03-25T04:33:42;93597.91;;;3.34;100.00
7990;BME280;4040;42.848;23.034;2024-03-25T04:36:10;93614.59;;;3.45;100.00
7990;BME280;4040;42.848;23.034;2024-03-25T04:38:36;93593.75;;;3.19;100.00
7990;BME280;4040;42.848;23.034;2024-03-25T04:41:02;93622.19;;;3.43;100.00
7990;BME280;4040;42.848;23.034;2024-03-25T04:43:30;93637.41;;;3.46;100.00
7990;BME280;4040;42.848;23.034;2024-03-25T04:46:00;93643.47;;;3.50;100.00
7990;BME280;4040;42.848;23.034;2024-03-25T04:48:26;93642.72;;;3.46;100.00
7990;BME280;4040;42.848;23.034;2024-03-25T04:50:52;93638.91;;;3.47;100.00
7990;BME280;4040;42.848;23.034;2024-03-25T04:53:18;93662.47;;;3.52;100.00
7990;BME280;4040;42.848;23.034;2024-03-25T04:55:44;93665.50;;;3.54;100.00
7990;BME280;4040;42.848;23.034;2024-03-25T04:58:10;93666.25;;;3.65;100.00
7990;BME280;4040;42.848;23.034;2024-03-25T05:00:38;93675.38;;;3.60;100.00
7990;BME280;4040;42.848;23.034;2024-03-25T05:03:05;93657.88;;;3.63;100.00
7990;BME280;4040;42.848;23.034;2024-03-25T05:05:31;93649.53;;;3.61;100.00
7990;BME280;4040;42.848;23.034;2024-03-25T05:07:57;93671.56;;;3.65;100.00
7990;BME280;4040;42.848;23.034;2024-03-25T05:10:23;93685.25;;;3.67;100.00
7990;BME280;4040;42.848;23.034;2024-03-25T05:12:50;93685.25;;;3.74;100.00
7990;BME280;4040;42.848;23.034;2024-03-25T05:15:16;93677.63;;;3.76;100.00
7990;BME280;4040;42.848;23.034;2024-03-25T05:17:43;93682.94;;;3.72;100.00
7990;BME280;4040;42.848;23.034;2024-03-25T05:20:10;93695.91;;;3.74;100.00
7990;BME280;4040;42.848;23.034;2024-03-25T05:22:37;93702.69;;;3.85;100.00
7990;BME280;4040;42.848;23.034;2024-03-25T05:25:03;93709.88;;;3.99;100.00
7990;BME280;4040;42.848;23.034;2024-03-25T05:27:30;93724.66;;;4.21;100.00
7990;BME280;4040;42.848;23.034;2024-03-25T05:29:56;93705.63;;;4.12;100.00
7990;BME280;4040;42.848;23.034;2024-03-25T05:32:22;93735.28;;;4.31;100.00
7990;BME280;4040;42.848;23.034;2024-03-25T05:34:50;93717.50;;;3.97;100.00
7990;BME280;4040;42.848;23.034;2024-03-25T05:37:16;93771.00;;;4.41;100.00
7990;BME280;4040;42.848;23.034;2024-03-25T05:39:43;93771.69;;;4.66;100.00
7990;BME280;4040;42.848;23.034;2024-03-25T05:42:09;93791.41;;;4.79;100.00
7990;BME280;4040;42.848;23.034;2024-03-25T05:44:35;93792.81;;;5.00;100.00
7990;BME280;4040;42.848;23.034;2024-03-25T05:47:01;93797.06;;;5.52;100.00
7990;BME280;4040;42.848;23.034;2024-03-25T05:49:28;93810.25;;;6.17;100.00
7990;BME280;4040;42.848;23.034;2024-03-25T05:51:55;93810.16;;;6.61;100.00
7990;BME280;4040;42.848;23.034;2024-03-25T05:54:22;93821.25;;;6.63;100.00
7990;BME280;4040;42.848;23.034;2024-03-25T05:56:48;93829.91;;;7.04;100.00
7990;BME280;4040;42.848;23.034;2024-03-25T05:59:14;93826.69;;;7.16;100.00
7990;BME280;4040;42.848;23.034;2024-03-25T06:01:40;93830.38;;;7.26;100.00
7990;BME280;4040;42.848;23.034;2024-03-25T06:04:06;93835.19;;;7.38;100.00
7990;BME280;4040;42.848;23.034;2024-03-25T06:06:33;93839.78;;;8.13;100.00
7990;BME280;4040;42.848;23.034;2024-03-25T06:09:00;93849.41;;;8.76;100.00
7990;BME280;4040;42.848;23.034;2024-03-25T06:11:26;93849.16;;;8.01;100.00
7990;BME280;4040;42.848;23.034;2024-03-25T06:13:53;93860.31;;;8.23;100.00
7990;BME280;4040;42.848;23.034;2024-03-25T06:16:19;93854.22;;;8.65;100.00
7990;BME280;4040;42.848;23.034;2024-03-25T06:18:45;93847.00;;;9.01;100.00
7990;BME280;4040;42.848;23.034;2024-03-25T06:21:11;93840.34;;;8.47;100.00
7990;BME280;4040;42.848;23.034;2024-03-25T06:23:38;93865.09;;;8.35;100.00
7990;BME280;4040;42.848;23.034;2024-03-25T06:26:05;93866.88;;;8.22;100.00
7990;BME280;4040;42.848;23.034;2024-03-25T06:28:31;93865.97;;;8.28;100.00
7990;BME280;4040;42.848;23.034;2024-03-25T06:30:58;93879.59;;;8.60;100.00
7990;BME280;4040;42.848;23.034;2024-03-25T06:33:43;93862.75;;;9.38;100.00
7990;BME280;4040;42.848;23.034;2024-03-25T06:36:27;93873.38;;;9.06;100.00
7990;BME280;4040;42.848;23.034;2024-03-25T06:38:53;93847.91;;;9.14;100.00
7990;BME280;4040;42.848;23.034;2024-03-25T06:41:21;93858.84;;;9.03;100.00
7990;BME280;4040;42.848;23.034;2024-03-25T06:43:47;93882.94;;;9.07;100.00
7990;BME280;4040;42.848;23.034;2024-03-25T06:46:14;93889.56;;;9.22;100.00
7990;BME280;4040;42.848;23.034;2024-03-25T06:48:40;93891.69;;;9.30;100.00
7990;BME280;4040;42.848;23.034;2024-03-25T06:51:06;93893.41;;;9.21;100.00
7990;BME280;4040;42.848;23.034;2024-03-25T06:53:32;93891.06;;;9.23;100.00
7990;BME280;4040;42.848;23.034;2024-03-25T06:55:59;93841.31;;;9.70;100.00
7990;BME280;4040;42.848;23.034;2024-03-25T06:58:28;93867.56;;;10.61;100.00
7990;BME280;4040;42.848;23.034;2024-03-25T07:00:55;93895.22;;;11.35;100.00
7990;BME280;4040;42.848;23.034;2024-03-25T07:03:22;93899.56;;;10.27;100.00
7990;BME280;4040;42.848;23.034;2024-03-25T07:05:49;93904.94;;;10.27;100.00
7990;BME280;4040;42.848;23.034;2024-03-25T07:08:16;93896.25;;;11.25;98.26
7990;BME280;4040;42.848;23.034;2024-03-25T07:10:42;93884.22;;;10.72;97.58
7990;BME280;4040;42.848;23.034;2024-03-25T07:13:08;93899.19;;;11.71;90.45
7990;BME280;4040;42.848;23.034;2024-03-25T07:15:36;93895.34;;;12.22;84.46
7990;BME280;4040;42.848;23.034;2024-03-25T07:18:03;93898.75;;;12.60;80.44
7990;BME280;4040;42.848;23.034;2024-03-25T07:20:29;93900.59;;;12.51;78.87
7990;BME280;4040;42.848;23.034;2024-03-25T07:22:56;93908.00;;;12.84;71.07
7990;BME280;4040;42.848;23.034;2024-03-25T07:25:22;93916.13;;;13.18;70.94
7990;BME280;4040;42.848;23.034;2024-03-25T07:30:19;93918.16;;;12.80;71.33
7990;BME280;4040;42.848;23.034;2024-03-25T07:32:46;93924.97;;;13.31;69.34
7990;BME280;4040;42.848;23.034;2024-03-25T07:35:12;93931.06;;;12.63;71.44
7990;BME280;4040;42.848;23.034;2024-03-25T07:37:38;93924.22;;;13.52;68.68
7990;BME280;4040;42.848;23.034;2024-03-25T07:40:05;93935.50;;;13.81;67.34
7990;BME280;4040;42.848;23.034;2024-03-25T07:42:32;93937.53;;;11.79;73.07
7990;BME280;4040;42.848;23.034;2024-03-25T07:44:58;93933.56;;;11.55;80.86
7990;BME280;4040;42.848;23.034;2024-03-25T07:47:26;93954.84;;;11.08;83.25
7990;BME280;4040;42.848;23.034;2024-03-25T07:49:52;93956.47;;;12.41;73.92
7990;BME280;4040;42.848;23.034;2024-03-25T07:52:18;93950.56;;;13.05;69.40
7990;BME280;4040;42.848;23.034;2024-03-25T07:54:45;93954.81;;;12.93;69.07
7990;BME280;4040;42.848;23.034;2024-03-25T07:57:11;93973.38;;;11.06;76.26
7990;BME280;4040;42.848;23.034;2024-03-25T07:59:37;93966.00;;;11.51;78.21
7990;BME280;4040;42.848;23.034;2024-03-25T08:02:03;93967.59;;;12.18;73.71
7990;BME280;4040;42.848;23.034;2024-03-25T08:04:31;93979.75;;;11.85;75.84
7990;BME280;4040;42.848;23.034;2024-03-25T08:06:57;93967.75;;;13.32;72.23
7990;BME280;4040;42.848;23.034;2024-03-25T08:09:24;93974.66;;;11.87;73.81
7990;BME280;4040;42.848;23.034;2024-03-25T08:11:50;93979.47;;;11.39;78.86
7990;BME280;4040;42.848;23.034;2024-03-25T08:14:16;93971.81;;;12.32;74.56
7990;BME280;4040;42.848;23.034;2024-03-25T08:16:42;93968.53;;;12.86;69.25
7990;BME280;4040;42.848;23.034;2024-03-25T08:19:09;93968.78;;;12.42;70.81
7990;BME280;4040;42.848;23.034;2024-03-25T08:21:36;93971.13;;;12.90;68.60
7990;BME280;4040;42.848;23.034;2024-03-25T08:24:03;93989.38;;;11.13;71.95
7990;BME280;4040;42.848;23.034;2024-03-25T08:26:30;93978.50;;;11.45;78.29
7990;BME280;4040;42.848;23.034;2024-03-25T08:28:56;93978.25;;;12.09;73.72
7990;BME280;4040;42.848;23.034;2024-03-25T08:31:22;93989.94;;;12.31;68.78
7990;BME280;4040;42.848;23.034;2024-03-25T08:33:49;93987.34;;;12.77;68.76
7990;BME280;4040;42.848;23.034;2024-03-25T08:36:15;93981.25;;;13.11;68.79
7990;BME280;4040;42.848;23.034;2024-03-25T08:38:43;93980.50;;;13.10;65.76
7990;BME280;4040;42.848;23.034;2024-03-25T08:41:09;93983.03;;;12.55;66.93
7990;BME280;4040;42.848;23.034;2024-03-25T08:43:35;93987.47;;;12.37;72.67
7990;BME280;4040;42.848;23.034;2024-03-25T08:46:02;93989.16;;;12.93;65.99
7990;BME280;4040;42.848;23.034;2024-03-25T08:48:28;93989.50;;;12.70;67.66
7990;BME280;4040;42.848;23.034;2024-03-25T08:50:54;93987.13;;;12.22;67.79
7990;BME280;4040;42.848;23.034;2024-03-25T08:53:21;93990.00;;;13.49;66.19
7990;BME280;4040;42.848;23.034;2024-03-25T08:55:49;93968.63;;;13.42;64.76
7990;BME280;4040;42.848;23.034;2024-03-25T08:58:15;93970.19;;;13.52;63.48
7990;BME280;4040;42.848;23.034;2024-03-25T09:00:42;93973.13;;;13.45;63.11
7990;BME280;4040;42.848;23.034;2024-03-25T09:03:08;93972.13;;;14.95;59.49
7990;BME280;4040;42.848;23.034;2024-03-25T09:05:35;93988.16;;;16.27;55.13
7990;BME280;4040;42.848;23.034;2024-03-25T09:08:01;93995.50;;;15.01;54.34
7990;BME280;4040;42.848;23.034;2024-03-25T09:10:29;93990.19;;;13.20;58.62
7990;BME280;4040;42.848;23.034;2024-03-25T09:13:15;94001.72;;;11.55;68.08
7990;BME280;4040;42.848;23.034;2024-03-25T09:15:41;94009.25;;;10.71;77.59
7990;BME280;4040;42.848;23.034;2024-03-25T09:18:07;94000.91;;;10.50;81.80
7990;BME280;4040;42.848;23.034;2024-03-25T09:20:33;94011.88;;;10.07;85.28
7990;BME280;4040;42.848;23.034;2024-03-25T09:23:00;93996.63;;;9.43;84.53
7990;BME280;4040;42.848;23.034;2024-03-25T09:25:26;94016.47;;;9.49;91.07
7990;BME280;4040;42.848;23.034;2024-03-25T09:27:52;94021.06;;;9.29;91.92
7990;BME280;4040;42.848;23.034;2024-03-25T09:30:20;93982.69;;;8.86;97.12
7990;BME280;4040;42.848;23.034;2024-03-25T09:32:46;94025.63;;;9.32;100.00
7990;BME280;4040;42.848;23.034;2024-03-25T09:35:12;94012.75;;;11.89;81.41
7990;BME280;4040;42.848;23.034;2024-03-25T09:37:39;94010.72;;;13.86;65.32
7990;BME280;4040;42.848;23.034;2024-03-25T09:40:06;94012.72;;;13.94;60.48
7990;BME280;4040;42.848;23.034;2024-03-25T09:42:34;93956.63;;;13.09;62.13
7990;BME280;4040;42.848;23.034;2024-03-25T09:45:02;94006.47;;;14.89;57.17
7990;BME280;4040;42.848;23.034;2024-03-25T09:47:32;94007.72;;;15.06;55.18
7990;BME280;4040;42.848;23.034;2024-03-25T09:49:59;93989.50;;;14.58;56.08
7990;BME280;4040;42.848;23.034;2024-03-25T09:52:28;94011.03;;;14.31;60.15
7990;BME280;4040;42.848;23.034;2024-03-25T09:54:54;94001.09;;;13.85;60.39
7990;BME280;4040;42.848;23.034;2024-03-25T09:57:21;94009.06;;;14.62;59.79
7990;BME280;4040;42.848;23.034;2024-03-25T09:59:48;94016.28;;;15.70;55.72
7990;BME280;4040;42.848;23.034;2024-03-25T10:02:14;94001.81;;;15.64;52.47
7990;BME280;4040;42.848;23.034;2024-03-25T10:04:46;94016.22;;;13.61;56.85
7990;BME280;4040;42.848;23.034;2024-03-25T10:07:21;94015.00;;;12.44;62.80
7990;BME280;4040;42.848;23.034;2024-03-25T10:09:48;94014.44;;;13.79;61.58
7990;BME280;4040;42.848;23.034;2024-03-25T10:12:14;94012.69;;;14.07;59.10
7990;BME280;4040;42.848;23.034;2024-03-25T10:14:40;94013.88;;;14.58;57.65
7990;BME280;4040;42.848;23.034;2024-03-25T10:17:06;94012.31;;;15.35;53.46
7990;BME280;4040;42.848;23.034;2024-03-25T10:19:33;94020.59;;;14.23;58.63
7990;BME280;4040;42.848;23.034;2024-03-25T10:22:07;94027.06;;;13.27;59.12
7990;BME280;4040;42.848;23.034;2024-03-25T10:24:38;94026.19;;;11.77;61.86
7990;BME280;4040;42.848;23.034;2024-03-25T10:27:05;94037.28;;;11.06;67.65
7990;BME280;4040;42.848;23.034;2024-03-25T10:29:31;94034.50;;;10.61;68.16
7990;BME280;4040;42.848;23.034;2024-03-25T10:32:01;94026.09;;;10.75;70.54
7990;BME280;4040;42.848;23.034;2024-03-25T10:34:27;93956.22;;;10.20;69.46
7990;BME280;4040;42.848;23.034;2024-03-25T10:36:57;94053.72;;;10.79;75.49
7990;BME280;4040;42.848;23.034;2024-03-25T10:39:28;94055.84;;;11.64;76.37
7990;BME280;4040;42.848;23.034;2024-03-25T10:41:57;94058.91;;;11.34;73.01
7990;BME280;4040;42.848;23.034;2024-03-25T10:44:24;93933.03;;;9.17;88.02
7990;BME280;4040;42.848;23.034;2024-03-25T10:46:55;94076.34;;;10.46;100.00
7990;BME280;4040;42.848;23.034;2024-03-25T10:49:31;94085.06;;;10.34;100.00
7990;BME280;4040;42.848;23.034;2024-03-25T10:52:00;94076.78;;;9.02;100.00
7990;BME280;4040;42.848;23.034;2024-03-25T10:54:30;94065.72;;;8.20;100.00
7990;BME280;4040;42.848;23.034;2024-03-25T10:56:58;94069.34;;;8.37;100.00
7990;BME280;4040;42.848;23.034;2024-03-25T10:59:26;94066.31;;;9.73;100.00
7990;BME280;4040;42.848;23.034;2024-03-25T11:01:52;94073.78;;;10.59;100.00
7990;BME280;4040;42.848;23.034;2024-03-25T11:04:22;94068.00;;;11.08;100.00
7990;BME280;4040;42.848;23.034;2024-03-25T11:06:49;94066.28;;;11.46;100.00
7990;BME280;4040;42.848;23.034;2024-03-25T11:09:24;94054.56;;;13.59;100.00
7990;BME280;4040;42.848;23.034;2024-03-25T11:11:52;94050.50;;;15.02;81.41
7990;BME280;4040;42.848;23.034;2024-03-25T11:14:19;94044.81;;;15.09;69.13
7990;BME280;4040;42.848;23.034;2024-03-25T11:16:51;94063.97;;;12.96;77.04
7990;BME280;4040;42.848;23.034;2024-03-25T11:19:18;94061.00;;;11.43;81.47
7990;BME280;4040;42.848;23.034;2024-03-25T11:21:45;94073.22;;;11.15;95.18
7990;BME280;4040;42.848;23.034;2024-03-25T11:24:12;94078.44;;;11.06;96.15
7990;BME280;4040;42.848;23.034;2024-03-25T11:26:41;94079.78;;;10.98;97.96
7990;BME280;4040;42.848;23.034;2024-03-25T11:29:09;94085.84;;;10.70;93.41
7990;BME280;4040;42.848;23.034;2024-03-25T11:31:38;94079.78;;;10.82;91.25
7990;BME280;4040;42.848;23.034;2024-03-25T11:34:05;94084.97;;;10.22;88.72
7990;BME280;4040;42.848;23.034;2024-03-25T11:36:31;94077.72;;;9.99;95.29
7990;BME280;4040;42.848;23.034;2024-03-25T11:38:58;94077.63;;;9.84;97.35
7990;BME280;4040;42.848;23.034;2024-03-25T11:41:25;94081.19;;;9.58;97.16
7990;BME280;4040;42.848;23.034;2024-03-25T11:43:51;94081.50;;;9.83;92.46
7990;BME280;4040;42.848;23.034;2024-03-25T11:46:24;94086.34;;;10.10;90.74
7990;BME280;4040;42.848;23.034;2024-03-25T11:48:51;94071.50;;;10.57;90.33
7990;BME280;4040;42.848;23.034;2024-03-25T11:51:17;94012.28;;;9.87;90.93
7990;BME280;4040;42.848;23.034;2024-03-25T11:53:44;94072.25;;;10.22;89.19
7990;BME280;4040;42.848;23.034;2024-03-25T11:56:11;94072.41;;;10.51;85.18
7990;BME280;4040;42.848;23.034;2024-03-25T12:01:36;94063.00;;;10.23;77.01
7990;BME280;4040;42.848;23.034;2024-03-25T12:04:10;94069.00;;;10.66;80.67
7990;BME280;4040;42.848;23.034;2024-03-25T12:06:36;94066.03;;;10.61;76.57
7990;BME280;4040;42.848;23.034;2024-03-25T12:09:02;94065.75;;;10.39;76.79
7990;BME280;4040;42.848;23.034;2024-03-25T12:11:47;94056.84;;;10.58;79.38
7990;BME280;4040;42.848;23.034;2024-03-25T12:14:14;94035.00;;;10.88;79.07
7990;BME280;4040;42.848;23.034;2024-03-25T12:16:42;94065.16;;;11.15;73.01
7990;BME280;4040;42.848;23.034;2024-03-25T12:19:09;94073.16;;;10.87;75.96
7990;BME280;4040;42.848;23.034;2024-03-25T12:21:35;94063.91;;;9.98;87.16
7990;BME280;4040;42.848;23.034;2024-03-25T12:24:02;94070.47;;;9.12;100.00
7990;BME280;4040;42.848;23.034;2024-03-25T12:26:30;94065.59;;;8.84;100.00
7990;BME280;4040;42.848;23.034;2024-03-25T12:28:57;94063.84;;;8.97;100.00
7990;BME280;4040;42.848;23.034;2024-03-25T12:31:24;94056.41;;;9.04;100.00
7990;BME280;4040;42.848;23.034;2024-03-25T12:33:52;94051.97;;;9.40;100.00
7990;BME280;4040;42.848;23.034;2024-03-25T12:36:20;94052.31;;;9.42;100.00
7990;BME280;4040;42.848;23.034;2024-03-25T12:38:54;94051.88;;;9.44;100.00
7990;BME280;4040;42.848;23.034;2024-03-25T12:41:22;94045.50;;;9.77;100.00
7990;BME280;4040;42.848;23.034;2024-03-25T12:43:50;94049.28;;;10.18;100.00
7990;BME280;4040;42.848;23.034;2024-03-25T12:46:17;94054.28;;;10.35;94.36
7990;BME280;4040;42.848;23.034;2024-03-25T12:48:43;94044.38;;;10.32;94.80
7990;BME280;4040;42.848;23.034;2024-03-25T12:51:14;94045.94;;;10.14;93.02
7990;BME280;4040;42.848;23.034;2024-03-25T12:53:40;94049.38;;;10.14;87.09
7990;BME280;4040;42.848;23.034;2024-03-25T12:56:07;94048.13;;;9.99;85.63
7990;BME280;4040;42.848;23.034;2024-03-25T12:58:33;94047.84;;;10.13;86.15
7990;BME280;4040;42.848;23.034;2024-03-25T13:01:00;94048.56;;;10.33;84.35
7990;BME280;4040;42.848;23.034;2024-03-25T13:03:27;94046.72;;;10.30;85.28
7990;BME280;4040;42.848;23.034;2024-03-25T13:05:53;94054.28;;;10.35;83.05
7990;BME280;4040;42.848;23.034;2024-03-25T13:08:21;94053.56;;;10.35;82.68
7990;BME280;4040;42.848;23.034;2024-03-25T13:10:47;94046.41;;;10.44;76.56
7990;BME280;4040;42.848;23.034;2024-03-25T13:13:14;94044.75;;;10.50;72.64
7990;BME280;4040;42.848;23.034;2024-03-25T13:15:41;94043.25;;;10.49;72.63